Time;durP1;ratioP1;P1;durP2;ratioP2;P2;SDS_P1;SDS_P2;PMS_P1;PMS_P2;Temp;Humidity;BMP_temperature;BMP_pressure;BME280_temperature;BME280_humidity;BME280_pressure;Samples;Min_cycle;Max_cycle;Signal;HPM_P1;HPM_P2
2022/09/21 00:01:15;;;;;;;4.00;1.00;;;;;;;;;;5053523;28;20113;-63
2022/09/21 00:04:24;;;;;;;2.20;1.25;;;;;;;;;;5053440;28;20356;-63
2022/09/21 00:06:50;;;;;;;4.05;1.17;;;;;;;;;;5073300;28;20391;-64
2022/09/21 00:09:16;;;;;;;2.20;1.20;;;;;;;;;;5073168;28;20028;-63
2022/09/21 00:11:42;;;;;;;2.65;0.98;;;;;;;;;;5073129;28;20060;-63
2022/09/21 00:14:11;;;;;;;2.40;1.20;;;;;;;;;;5073402;28;20021;-66
2022/09/21 00:16:38;;;;;;;1.55;1.10;;;;;;;;;;5073254;28;20051;-61
2022/09/21 00:19:05;;;;;;;4.95;1.30;;;;;;;;;;5072944;28;20507;-62
2022/09/21 00:21:32;;;;;;;2.30;1.10;;;;;;;;;;5073104;28;20437;-64
2022/09/21 00:23:59;;;;;;;1.75;1.13;;;;;;;;;;5071771;28;20025;-62
2022/09/21 00:26:26;;;;;;;4.20;1.10;;;;;;;;;;5072963;28;20032;-62
2022/09/21 00:28:54;;;;;;;3.05;1.10;;;;;;;;;;5072288;28;20024;-63
2022/09/21 00:31:21;;;;;;;4.63;1.88;;;;;;;;;;5072909;28;20056;-63
2022/09/21 00:33:47;;;;;;;4.82;1.20;;;;;;;;;;5072287;28;20130;-63
2022/09/21 00:36:16;;;;;;;2.40;1.17;;;;;;;;;;5072568;28;20418;-64
2022/09/21 00:38:42;;;;;;;2.30;1.27;;;;;;;;;;5072477;28;20039;-65
2022/09/21 00:41:58;;;;;;;1.70;1.00;;;;;;;;;;5065904;28;20429;-65
2022/09/21 00:44:31;;;;;;;2.55;1.30;;;;;;;;;;5056300;28;20037;-61
2022/09/21 00:47:08;;;;;;;4.20;1.20;;;;;;;;;;5056962;28;20583;-62
2022/09/21 00:49:35;;;;;;;2.42;1.00;;;;;;;;;;5052735;28;20029;-62
2022/09/21 00:52:04;;;;;;;3.35;1.17;;;;;;;;;;5057895;28;20056;-61
2022/09/21 00:55:19;;;;;;;2.03;1.02;;;;;;;;;;5051152;28;20071;-63
2022/09/21 00:57:50;;;;;;;3.28;1.10;;;;;;;;;;5051822;28;20148;-62
2022/09/21 01:00:16;;;;;;;2.65;1.10;;;;;;;;;;5052562;28;20434;-61
2022/09/21 01:02:42;;;;;;;1.60;1.00;;;;;;;;;;5052860;28;20028;-61
2022/09/21 01:05:09;;;;;;;1.45;0.93;;;;;;;;;;5052349;28;20068;-61
2022/09/21 01:07:44;;;;;;;2.05;1.20;;;;;;;;;;5052473;28;20092;-62
2022/09/21 01:10:13;;;;;;;2.90;1.05;;;;;;;;;;5051958;28;20075;-61
2022/09/21 01:12:41;;;;;;;3.05;1.10;;;;;;;;;;5052279;28;20480;-61
2022/09/21 01:15:23;;;;;;;3.15;1.13;;;;;;;;;;5051018;28;20550;-62
2022/09/21 01:17:48;;;;;;;1.88;0.90;;;;;;;;;;5052302;28;20040;-63
2022/09/21 01:20:38;;;;;;;5.15;1.15;;;;;;;;;;5052128;28;20025;-62
2022/09/21 01:23:39;;;;;;;4.20;1.05;;;;;;;;;;5057417;28;20040;-63
2022/09/21 01:26:22;;;;;;;1.73;0.95;;;;;;;;;;5057131;28;20112;-62
2022/09/21 01:29:12;;;;;;;1.50;1.10;;;;;;;;;;5068983;28;20033;-62
2022/09/21 01:32:21;;;;;;;1.90;1.00;;;;;;;;;;5070606;28;20111;-61
2022/09/21 01:34:59;;;;;;;1.48;0.90;;;;;;;;;;5060506;28;20049;-62
2022/09/21 01:37:31;;;;;;;1.15;0.90;;;;;;;;;;5068724;28;20486;-62
2022/09/21 01:40:01;;;;;;;3.00;1.03;;;;;;;;;;5069230;28;20029;-63
2022/09/21 01:42:30;;;;;;;1.60;1.10;;;;;;;;;;5068323;28;20057;-61
2022/09/21 01:44:59;;;;;;;1.25;1.00;;;;;;;;;;5078275;28;20025;-64
2022/09/21 01:47:26;;;;;;;2.58;1.10;;;;;;;;;;5078056;28;20028;-62
2022/09/21 01:49:54;;;;;;;4.10;1.10;;;;;;;;;;5077637;28;20024;-62
2022/09/21 01:52:38;;;;;;;1.25;0.90;;;;;;;;;;5076813;28;20036;-62
2022/09/21 01:55:09;;;;;;;2.33;1.10;;;;;;;;;;5078140;28;20032;-61
2022/09/21 01:58:11;;;;;;;2.63;0.95;;;;;;;;;;5073683;28;20032;-62
2022/09/21 02:00:38;;;;;;;3.10;1.58;;;;;;;;;;5075024;28;20032;-61
2022/09/21 02:03:12;;;;;;;2.80;1.17;;;;;;;;;;5077435;28;20036;-63
2022/09/21 02:05:39;;;;;;;1.98;1.15;;;;;;;;;;5077944;28;20043;-65
2022/09/21 02:08:06;;;;;;;2.58;1.10;;;;;;;;;;5077479;28;20024;-61
2022/09/21 02:10:49;;;;;;;3.28;1.20;;;;;;;;;;5078081;28;20036;-64
2022/09/21 02:13:17;;;;;;;2.70;1.20;;;;;;;;;;5078287;28;20036;-62
2022/09/21 02:16:07;;;;;;;1.90;1.00;;;;;;;;;;5078026;28;20051;-62
2022/09/21 02:18:59;;;;;;;2.28;1.17;;;;;;;;;;5077940;28;20044;-62
2022/09/21 02:21:56;;;;;;;3.30;1.35;;;;;;;;;;5077200;28;20064;-62
2022/09/21 02:24:43;;;;;;;1.95;1.10;;;;;;;;;;5077695;28;20060;-63
2022/09/21 02:27:34;;;;;;;4.07;1.10;;;;;;;;;;5077820;28;20036;-65
2022/09/21 02:30:18;;;;;;;5.25;1.00;;;;;;;;;;5077554;28;20107;-62
2022/09/21 02:32:59;;;;;;;3.08;1.13;;;;;;;;;;5076801;28;20467;-62
2022/09/21 02:35:56;;;;;;;1.75;0.98;;;;;;;;;;5077241;28;20067;-62
2022/09/21 02:38:25;;;;;;;3.67;0.98;;;;;;;;;;5077981;28;20056;-62
2022/09/21 02:41:00;;;;;;;2.08;1.10;;;;;;;;;;5078026;28;20021;-61
2022/09/21 02:43:30;;;;;;;2.08;1.15;;;;;;;;;;5078080;28;20025;-61
2022/09/21 02:46:03;;;;;;;6.35;1.60;;;;;;;;;;5078458;28;20111;-61
2022/09/21 02:48:40;;;;;;;2.33;1.33;;;;;;;;;;5078276;28;20081;-61
2022/09/21 02:51:13;;;;;;;7.65;1.83;;;;;;;;;;5076660;28;20411;-62
2022/09/21 02:53:41;;;;;;;6.73;1.80;;;;;;;;;;5073804;28;20486;-61
2022/09/21 02:56:10;;;;;;;2.90;1.30;;;;;;;;;;5074995;28;20340;-62
2022/09/21 02:58:44;;;;;;;6.63;1.67;;;;;;;;;;5073537;28;20166;-62
2022/09/21 03:01:11;;;;;;;6.45;1.48;;;;;;;;;;5073515;28;20537;-62
2022/09/21 03:03:37;;;;;;;2.75;1.00;;;;;;;;;;5074777;28;20047;-62
2022/09/21 03:06:03;;;;;;;6.97;1.30;;;;;;;;;;5074788;28;20063;-62
2022/09/21 03:08:29;;;;;;;3.70;1.15;;;;;;;;;;5074473;28;20067;-62
2022/09/21 03:10:56;;;;;;;3.40;1.13;;;;;;;;;;5074153;28;20556;-61
2022/09/21 03:13:23;;;;;;;7.53;1.38;;;;;;;;;;5074494;28;20052;-63
2022/09/21 03:15:48;;;;;;;5.45;1.30;;;;;;;;;;5074761;28;20033;-62
2022/09/21 03:18:14;;;;;;;4.97;1.20;;;;;;;;;;5065124;28;20023;-65
2022/09/21 03:20:46;;;;;;;1.80;1.10;;;;;;;;;;5058810;28;20041;-61
2022/09/21 03:23:13;;;;;;;5.32;1.13;;;;;;;;;;5074348;28;20135;-61
2022/09/21 03:25:42;;;;;;;2.35;0.90;;;;;;;;;;5072701;28;20025;-61
2022/09/21 03:28:09;;;;;;;4.20;1.20;;;;;;;;;;5064857;28;20498;-64
2022/09/21 03:30:35;;;;;;;4.10;1.00;;;;;;;;;;5053983;28;20025;-63
2022/09/21 03:33:04;;;;;;;1.17;0.80;;;;;;;;;;5052779;28;20044;-64
2022/09/21 03:35:32;;;;;;;5.22;1.00;;;;;;;;;;5054014;28;20033;-61
2022/09/21 03:37:58;;;;;;;1.65;0.82;;;;;;;;;;5054022;28;20041;-62
2022/09/21 03:40:25;;;;;;;5.53;1.48;;;;;;;;;;5058475;28;20498;-62
2022/09/21 03:42:51;;;;;;;1.50;0.90;;;;;;;;;;5073997;28;20028;-62
2022/09/21 03:45:17;;;;;;;2.70;0.88;;;;;;;;;;5073806;28;20020;-61
2022/09/21 03:47:43;;;;;;;3.25;1.10;;;;;;;;;;5073722;28;20036;-62
2022/09/21 03:50:10;;;;;;;5.32;0.90;;;;;;;;;;5073273;28;20025;-63
2022/09/21 03:52:38;;;;;;;9.40;1.60;;;;;;;;;;5073418;28;20055;-62
2022/09/21 03:55:05;;;;;;;5.35;1.15;;;;;;;;;;5073669;28;20479;-64
2022/09/21 03:57:37;;;;;;;2.67;1.08;;;;;;;;;;5073220;28;20025;-61
2022/09/21 04:00:06;;;;;;;2.45;1.20;;;;;;;;;;5071843;28;20391;-61
2022/09/21 04:02:32;;;;;;;1.95;1.30;;;;;;;;;;5072993;28;20021;-62
2022/09/21 04:04:58;;;;;;;1.40;0.90;;;;;;;;;;5072262;28;20051;-64
2022/09/21 04:07:25;;;;;;;6.10;1.20;;;;;;;;;;5073309;28;20188;-61
2022/09/21 04:09:50;;;;;;;2.95;0.85;;;;;;;;;;5073024;28;20029;-61
2022/09/21 04:12:20;;;;;;;3.88;0.90;;;;;;;;;;5073185;28;20123;-61
2022/09/21 04:14:46;;;;;;;7.53;0.98;;;;;;;;;;5073356;28;20096;-62
2022/09/21 04:17:12;;;;;;;2.47;1.00;;;;;;;;;;5063241;28;20017;-60
2022/09/21 04:19:38;;;;;;;3.50;1.00;;;;;;;;;;5062189;28;20063;-62
2022/09/21 04:22:05;;;;;;;6.13;1.17;;;;;;;;;;5069595;28;20016;-62
2022/09/21 04:24:31;;;;;;;6.35;1.00;;;;;;;;;;5062736;28;20524;-62
2022/09/21 04:26:57;;;;;;;1.45;0.98;;;;;;;;;;5072159;28;20115;-62
2022/09/21 04:29:22;;;;;;;3.40;1.08;;;;;;;;;;5072393;28;20025;-62
2022/09/21 04:31:48;;;;;;;1.60;0.90;;;;;;;;;;5072332;28;20016;-65
2022/09/21 04:34:14;;;;;;;2.75;0.90;;;;;;;;;;5072216;28;20040;-62
2022/09/21 04:36:40;;;;;;;1.15;0.82;;;;;;;;;;5072149;28;20479;-66
2022/09/21 04:39:06;;;;;;;1.33;0.85;;;;;;;;;;5071364;28;20093;-66
2022/09/21 04:41:32;;;;;;;5.10;1.20;;;;;;;;;;5071993;28;20429;-65
2022/09/21 04:43:58;;;;;;;1.33;0.88;;;;;;;;;;5071382;28;20427;-66
2022/09/21 04:46:24;;;;;;;3.33;1.20;;;;;;;;;;5071745;28;20059;-67
2022/09/21 04:48:50;;;;;;;1.98;1.20;;;;;;;;;;5066804;28;20062;-65
2022/09/21 04:51:17;;;;;;;4.00;0.90;;;;;;;;;;5068055;28;20475;-67
2022/09/21 04:53:43;;;;;;;2.20;1.10;;;;;;;;;;5072041;28;20384;-70
2022/09/21 04:56:11;;;;;;;4.13;1.20;;;;;;;;;;5087598;28;20028;-67
2022/09/21 04:58:37;;;;;;;4.95;1.73;;;;;;;;;;5072021;28;20051;-66
2022/09/21 05:01:05;;;;;;;10.38;1.98;;;;;;;;;;5067639;28;20024;-67
2022/09/21 05:03:31;;;;;;;10.18;1.90;;;;;;;;;;5058390;28;20495;-67
2022/09/21 05:05:57;;;;;;;2.78;1.33;;;;;;;;;;5055733;28;20025;-67
2022/09/21 05:11:12;;;;;;;2.42;1.33;;;;;;;;;;5059563;28;20163;-69
2022/09/21 05:13:39;;;;;;;3.40;1.40;;;;;;;;;;5063288;28;20398;-67
2022/09/21 05:16:05;;;;;;;9.68;1.60;;;;;;;;;;5061206;28;20039;-68
2022/09/21 05:18:31;;;;;;;3.53;1.15;;;;;;;;;;5072125;28;20021;-66
2022/09/21 05:20:59;;;;;;;9.45;1.85;;;;;;;;;;5070986;28;20074;-67
2022/09/21 05:23:28;;;;;;;8.45;1.38;;;;;;;;;;5072596;28;20095;-67
2022/09/21 05:25:55;;;;;;;7.63;1.13;;;;;;;;;;5072473;28;20037;-66
2022/09/21 05:28:21;;;;;;;8.68;2.22;;;;;;;;;;5071937;28;20017;-67
2022/09/21 05:31:12;;;;;;;3.38;1.20;;;;;;;;;;5064200;28;20040;-68
2022/09/21 05:33:41;;;;;;;5.53;1.48;;;;;;;;;;5052132;28;20045;-68
2022/09/21 05:36:29;;;;;;;3.33;1.27;;;;;;;;;;5052307;28;20108;-67
2022/09/21 05:38:55;;;;;;;5.70;1.52;;;;;;;;;;5051223;28;20041;-67
2022/09/21 05:41:22;;;;;;;4.35;1.20;;;;;;;;;;5052235;28;20440;-66
2022/09/21 05:43:48;;;;;;;3.53;1.08;;;;;;;;;;5052406;28;20439;-66
2022/09/21 05:46:16;;;;;;;2.00;0.77;;;;;;;;;;5051307;28;20099;-67
2022/09/21 05:48:53;;;;;;;4.30;0.90;;;;;;;;;;5052703;28;20438;-68
2022/09/21 05:51:50;;;;;;;7.82;1.00;;;;;;;;;;5052253;28;20093;-66
2022/09/21 05:54:42;;;;;;;4.55;1.02;;;;;;;;;;5034721;28;20045;-68
2022/09/21 05:57:18;;;;;;;2.58;1.00;;;;;;;;;;5036491;28;20068;-67
2022/09/21 06:00:00;;;;;;;2.83;1.23;;;;;;;;;;5051674;28;20037;-67
2022/09/21 06:02:44;;;;;;;3.20;0.90;;;;;;;;;;5050936;28;20130;-69
2022/09/21 06:05:11;;;;;;;;;;;;;;;;;;5052779;28;20055;-67
2022/09/21 06:07:36;;;;;;;3.22;1.25;;;;;;;;;;5052437;28;19917;-67
2022/09/21 06:10:03;;;;;;;5.80;1.23;;;;;;;;;;5052536;28;20052;-68
2022/09/21 06:12:28;;;;;;;3.50;1.50;;;;;;;;;;5052994;28;20020;-68
2022/09/21 06:14:55;;;;;;;3.78;1.20;;;;;;;;;;5052583;28;20051;-68
2022/09/21 06:17:21;;;;;;;2.65;1.02;;;;;;;;;;5052621;28;20052;-68
2022/09/21 06:19:47;;;;;;;2.72;1.13;;;;;;;;;;5052623;28;20037;-68
2022/09/21 06:22:13;;;;;;;1.42;0.82;;;;;;;;;;5052724;28;20033;-69
2022/09/21 06:24:39;;;;;;;2.60;1.00;;;;;;;;;;5052633;28;20029;-69
2022/09/21 06:27:04;;;;;;;2.10;0.90;;;;;;;;;;5054162;28;20025;-69
2022/09/21 06:29:30;;;;;;;1.52;0.80;;;;;;;;;;5056874;28;20036;-69
2022/09/21 06:31:56;;;;;;;2.08;1.10;;;;;;;;;;5056249;28;20040;-68
2022/09/21 06:34:22;;;;;;;4.10;1.10;;;;;;;;;;5054721;28;20041;-68
2022/09/21 06:36:48;;;;;;;1.85;1.02;;;;;;;;;;5054739;28;20044;-69
2022/09/21 06:39:14;;;;;;;1.08;0.70;;;;;;;;;;5055726;28;20041;-67
2022/09/21 06:41:40;;;;;;;3.63;1.25;;;;;;;;;;5055856;28;20100;-67
2022/09/21 06:44:09;;;;;;;2.33;0.98;;;;;;;;;;5055647;28;20025;-66
2022/09/21 06:46:35;;;;;;;2.03;1.00;;;;;;;;;;5054283;28;20059;-67
2022/09/21 06:49:01;;;;;;;2.72;1.10;;;;;;;;;;5055695;28;20041;-67
2022/09/21 06:51:26;;;;;;;7.57;1.65;;;;;;;;;;5055727;28;20021;-68
2022/09/21 06:53:57;;;;;;;3.05;1.30;;;;;;;;;;5054174;28;20041;-67
2022/09/21 06:56:24;;;;;;;4.63;1.45;;;;;;;;;;5056496;28;20028;-66
2022/09/21 06:58:51;;;;;;;4.13;0.90;;;;;;;;;;5075122;28;20039;-68
2022/09/21 07:01:18;;;;;;;4.00;1.17;;;;;;;;;;5074869;28;20045;-66
2022/09/21 07:03:47;;;;;;;4.25;1.13;;;;;;;;;;5075141;28;20032;-66
2022/09/21 07:06:14;;;;;;;1.58;1.10;;;;;;;;;;5075149;28;20140;-66
2022/09/21 07:08:41;;;;;;;2.70;0.90;;;;;;;;;;5074947;28;20017;-66
2022/09/21 07:11:07;;;;;;;7.05;1.20;;;;;;;;;;5067393;28;20025;-65
2022/09/21 07:13:34;;;;;;;3.63;1.00;;;;;;;;;;5054774;28;20475;-68
2022/09/21 07:16:06;;;;;;;2.70;1.20;;;;;;;;;;5054824;28;20112;-66
2022/09/21 07:18:33;;;;;;;4.05;0.90;;;;;;;;;;5054837;28;20061;-65
2022/09/21 07:21:07;;;;;;;9.57;2.03;;;;;;;;;;5071888;28;20056;-66
2022/09/21 07:23:33;;;;;;;7.88;1.80;;;;;;;;;;5073546;28;20036;-66
2022/09/21 07:26:05;;;;;;;1.08;0.90;;;;;;;;;;5056570;28;20021;-66
2022/09/21 07:28:31;;;;;;;4.68;1.10;;;;;;;;;;5054686;28;20029;-65
2022/09/21 07:30:58;;;;;;;2.45;0.98;;;;;;;;;;5054650;28;20380;-66
2022/09/21 07:33:25;;;;;;;3.55;0.95;;;;;;;;;;5056830;28;20060;-69
2022/09/21 07:35:52;;;;;;;2.13;0.90;;;;;;;;;;5074474;28;20082;-66
2022/09/21 07:38:18;;;;;;;3.92;1.35;;;;;;;;;;5074139;28;20078;-65
2022/09/21 07:40:44;;;;;;;4.20;0.95;;;;;;;;;;5074428;28;20048;-65
2022/09/21 07:43:10;;;;;;;4.85;1.25;;;;;;;;;;5074392;28;20090;-64
2022/09/21 07:45:36;;;;;;;1.70;1.00;;;;;;;;;;5073957;28;20024;-67
2022/09/21 07:48:03;;;;;;;3.88;1.23;;;;;;;;;;5073694;28;20039;-64
2022/09/21 07:50:29;;;;;;;2.60;0.93;;;;;;;;;;5073763;28;20043;-67
2022/09/21 07:52:54;;;;;;;7.68;1.88;;;;;;;;;;5073761;28;20028;-65
2022/09/21 07:55:20;;;;;;;2.42;1.00;;;;;;;;;;5073882;28;20020;-64
2022/09/21 08:00:34;;;;;;;5.18;1.17;;;;;;;;;;5071030;28;20040;-65
2022/09/21 08:03:00;;;;;;;2.40;0.90;;;;;;;;;;5074053;28;20364;-64
2022/09/21 08:05:26;;;;;;;3.75;1.20;;;;;;;;;;5067730;28;20035;-64
2022/09/21 08:07:55;;;;;;;3.50;0.98;;;;;;;;;;5072498;28;20017;-65
2022/09/21 08:10:22;;;;;;;4.10;1.10;;;;;;;;;;5072099;28;20453;-66
2022/09/21 08:12:49;;;;;;;2.72;1.10;;;;;;;;;;5072972;28;20020;-66
2022/09/21 08:15:16;;;;;;;3.15;1.08;;;;;;;;;;5073709;28;20071;-64
2022/09/21 08:17:43;;;;;;;2.35;1.00;;;;;;;;;;5062344;28;20048;-65
2022/09/21 08:20:09;;;;;;;3.90;1.20;;;;;;;;;;5073735;28;20039;-65
2022/09/21 08:22:35;;;;;;;2.67;1.30;;;;;;;;;;5072451;28;20108;-65
2022/09/21 08:25:01;;;;;;;8.38;1.48;;;;;;;;;;5071464;28;20041;-64
2022/09/21 08:27:27;;;;;;;6.60;1.10;;;;;;;;;;5073170;28;20028;-64
2022/09/21 08:29:53;;;;;;;4.13;1.42;;;;;;;;;;5073256;28;20047;-66
2022/09/21 08:32:19;;;;;;;6.72;1.38;;;;;;;;;;5073459;28;20016;-65
2022/09/21 08:34:45;;;;;;;3.20;1.33;;;;;;;;;;5072707;28;20041;-64
2022/09/21 08:37:10;;;;;;;2.33;0.90;;;;;;;;;;5072632;28;20024;-65
2022/09/21 08:39:36;;;;;;;3.30;1.00;;;;;;;;;;5072692;28;20086;-66
2022/09/21 08:42:32;;;;;;;2.08;1.10;;;;;;;;;;5072871;28;20020;-66
2022/09/21 08:45:08;;;;;;;3.78;1.00;;;;;;;;;;5069911;28;20400;-65
2022/09/21 08:47:56;;;;;;;1.38;0.88;;;;;;;;;;5072954;28;20138;-67
2022/09/21 08:50:31;;;;;;;1.80;1.00;;;;;;;;;;5072752;28;20592;-65
2022/09/21 08:53:02;;;;;;;3.85;1.00;;;;;;;;;;5071381;28;20040;-65
2022/09/21 08:55:28;;;;;;;3.97;1.40;;;;;;;;;;5072959;28;20054;-65
2022/09/21 08:57:54;;;;;;;4.75;1.35;;;;;;;;;;5071610;28;20636;-64
2022/09/21 09:00:20;;;;;;;2.28;1.10;;;;;;;;;;5069827;28;20850;-64
2022/09/21 09:03:45;;;;;;;3.83;1.08;;;;;;;;;;5072396;28;20370;-64
2022/09/21 09:06:25;;;;;;;2.25;1.08;;;;;;;;;;5049602;28;20045;-64
2022/09/21 09:09:18;;;;;;;1.70;1.00;;;;;;;;;;5049473;28;20037;-63
2022/09/21 09:11:58;;;;;;;1.48;0.90;;;;;;;;;;5051825;28;20061;-64
2022/09/21 09:14:50;;;;;;;1.90;1.30;;;;;;;;;;5051012;28;20124;-63
2022/09/21 09:17:26;;;;;;;2.65;1.20;;;;;;;;;;5059283;28;20055;-64
2022/09/21 09:20:08;;;;;;;4.72;1.00;;;;;;;;;;5072052;28;20102;-64
2022/09/21 09:22:41;;;;;;;3.10;1.13;;;;;;;;;;5071816;28;20062;-63
2022/09/21 09:25:20;;;;;;;1.92;1.00;;;;;;;;;;5072002;28;20028;-62
2022/09/21 09:27:52;;;;;;;3.10;1.10;;;;;;;;;;5071201;28;20094;-71
2022/09/21 09:30:29;;;;;;;1.88;1.25;;;;;;;;;;5071592;28;20033;-65
2022/09/21 09:33:15;;;;;;;5.35;1.10;;;;;;;;;;5066560;28;20367;-64
2022/09/21 09:35:49;;;;;;;2.30;1.20;;;;;;;;;;5068288;28;20064;-64
2022/09/21 09:38:49;;;;;;;2.92;1.23;;;;;;;;;;5069016;28;20041;-63
2022/09/21 09:41:30;;;;;;;2.83;1.50;;;;;;;;;;5070302;28;20410;-63
2022/09/21 09:44:21;;;;;;;5.68;1.20;;;;;;;;;;5051621;28;20035;-64
2022/09/21 09:47:08;;;;;;;3.28;1.45;;;;;;;;;;5065604;28;20111;-63
2022/09/21 09:49:56;;;;;;;5.72;1.55;;;;;;;;;;5071302;28;20033;-64
2022/09/21 09:52:22;;;;;;;4.20;1.20;;;;;;;;;;5062225;28;20459;-64
2022/09/21 09:54:48;;;;;;;3.08;1.10;;;;;;;;;;5071997;28;20107;-62
2022/09/21 09:57:19;;;;;;;2.78;1.20;;;;;;;;;;5071925;28;20029;-64
2022/09/21 09:59:54;;;;;;;4.40;1.00;;;;;;;;;;5069407;28;20044;-63
2022/09/21 10:02:22;;;;;;;4.18;1.00;;;;;;;;;;5064086;28;20028;-63
2022/09/21 10:05:02;;;;;;;2.15;1.13;;;;;;;;;;5063958;28;20489;-63
2022/09/21 10:07:33;;;;;;;2.65;1.20;;;;;;;;;;5062480;28;20052;-64
2022/09/21 10:09:59;;;;;;;4.00;1.30;;;;;;;;;;5061022;28;20060;-64
2022/09/21 10:12:26;;;;;;;2.88;1.10;;;;;;;;;;5061571;28;20052;-63
2022/09/21 10:14:56;;;;;;;1.60;1.02;;;;;;;;;;5069294;28;20040;-63
2022/09/21 10:17:24;;;;;;;2.65;1.20;;;;;;;;;;5057313;28;20025;-64
2022/09/21 10:19:59;;;;;;;6.22;1.50;;;;;;;;;;5073996;28;20033;-64
2022/09/21 10:22:28;;;;;;;2.38;1.30;;;;;;;;;;5058990;28;20033;-63
2022/09/21 10:24:55;;;;;;;5.00;1.40;;;;;;;;;;5056031;28;20056;-65
2022/09/21 10:27:28;;;;;;;2.63;1.30;;;;;;;;;;5074034;28;20135;-65
2022/09/21 10:29:54;;;;;;;7.10;1.50;;;;;;;;;;5073763;28;20125;-65
2022/09/21 10:32:23;;;;;;;3.28;1.20;;;;;;;;;;5055929;28;20048;-68
2022/09/21 10:35:06;;;;;;;3.85;1.00;;;;;;;;;;5055780;28;20086;-64
2022/09/21 10:37:39;;;;;;;2.33;1.08;;;;;;;;;;5066946;28;20036;-64
2022/09/21 10:40:20;;;;;;;3.35;1.10;;;;;;;;;;5075118;28;20032;-65
2022/09/21 10:42:52;;;;;;;2.92;1.13;;;;;;;;;;5075377;28;20394;-65
2022/09/21 10:45:20;;;;;;;2.92;1.00;;;;;;;;;;5075063;28;20035;-65
2022/09/21 10:47:49;;;;;;;4.05;1.23;;;;;;;;;;5073924;28;20102;-64
2022/09/21 10:50:24;;;;;;;2.17;1.20;;;;;;;;;;5073161;28;20029;-66
2022/09/21 10:52:56;;;;;;;3.60;1.63;;;;;;;;;;5057763;28;20029;-64
2022/09/21 10:55:23;;;;;;;5.25;1.38;;;;;;;;;;5068350;28;20056;-64
2022/09/21 10:57:51;;;;;;;3.78;1.10;;;;;;;;;;5076466;28;20103;-65
2022/09/21 11:00:30;;;;;;;2.60;1.20;;;;;;;;;;5075975;28;20055;-63
2022/09/21 11:03:00;;;;;;;3.10;1.50;;;;;;;;;;5074343;28;20036;-65
2022/09/21 11:05:33;;;;;;;3.13;1.20;;;;;;;;;;5075036;28;20024;-64
2022/09/21 11:08:17;;;;;;;4.82;1.25;;;;;;;;;;5074832;28;20028;-64
2022/09/21 11:10:45;;;;;;;5.65;1.48;;;;;;;;;;5074650;28;20522;-64
2022/09/21 11:13:24;;;;;;;4.45;1.40;;;;;;;;;;5072867;28;20035;-65
2022/09/21 11:16:27;;;;;;;8.77;1.27;;;;;;;;;;5074662;28;20024;-64
2022/09/21 11:19:04;;;;;;;2.50;1.35;;;;;;;;;;5074805;28;20032;-66
2022/09/21 11:21:45;;;;;;;1.60;1.08;;;;;;;;;;5074700;28;20093;-67
2022/09/21 11:24:39;;;;;;;4.25;1.67;;;;;;;;;;5068845;28;20423;-66
2022/09/21 11:27:11;;;;;;;;;;;;;;;;;;5054024;28;20129;-62
2022/09/21 11:30:02;;;;;;;4.07;1.42;;;;;;;;;;5053856;28;19917;-64
2022/09/21 11:32:59;;;;;;;6.72;1.25;;;;;;;;;;5053938;28;20104;-64
2022/09/21 11:35:43;;;;;;;8.63;1.60;;;;;;;;;;5053500;28;20029;-65
2022/09/21 11:38:09;;;;;;;7.70;1.30;;;;;;;;;;5054208;28;20138;-64
2022/09/21 11:41:10;;;;;;;4.75;1.48;;;;;;;;;;5054738;28;20017;-64
2022/09/21 11:43:39;;;;;;;5.38;1.40;;;;;;;;;;5054903;28;20029;-64
2022/09/21 11:46:21;;;;;;;4.63;1.30;;;;;;;;;;5054440;28;20490;-65
2022/09/21 11:49:16;;;;;;;2.10;1.20;;;;;;;;;;5053250;28;20053;-64
2022/09/21 11:51:48;;;;;;;2.47;1.23;;;;;;;;;;5054470;28;20063;-63
2022/09/21 11:54:51;;;;;;;5.82;1.10;;;;;;;;;;5054518;28;20040;-66
2022/09/21 11:57:27;;;;;;;3.60;1.25;;;;;;;;;;5053354;28;20041;-65
2022/09/21 12:00:07;;;;;;;3.70;1.20;;;;;;;;;;5054009;28;20052;-65
2022/09/21 12:03:14;;;;;;;3.17;1.38;;;;;;;;;;5054173;28;20033;-63
2022/09/21 12:06:00;;;;;;;5.82;1.02;;;;;;;;;;5054293;28;20067;-63
2022/09/21 12:08:40;;;;;;;4.82;1.30;;;;;;;;;;5054275;28;20041;-62
2022/09/21 12:11:24;;;;;;;3.65;0.90;;;;;;;;;;5054344;28;20516;-64
2022/09/21 12:14:06;;;;;;;6.63;1.17;;;;;;;;;;5054150;28;20391;-62
2022/09/21 12:16:54;;;;;;;4.03;1.08;;;;;;;;;;5054310;28;20033;-63
2022/09/21 12:19:32;;;;;;;3.15;1.08;;;;;;;;;;5054036;28;20121;-64
2022/09/21 12:22:06;;;;;;;3.53;1.00;;;;;;;;;;5054129;28;20107;-63
2022/09/21 12:24:46;;;;;;;3.85;1.35;;;;;;;;;;5053093;28;20476;-64
2022/09/21 12:27:25;;;;;;;1.50;1.08;;;;;;;;;;5061170;28;20459;-64
2022/09/21 12:29:56;;;;;;;5.47;1.70;;;;;;;;;;5073728;28;20422;-63
2022/09/21 12:32:26;;;;;;;5.43;1.35;;;;;;;;;;5073008;28;20060;-64
2022/09/21 12:34:59;;;;;;;4.45;1.17;;;;;;;;;;5073267;28;20398;-64
2022/09/21 12:37:37;;;;;;;5.10;1.58;;;;;;;;;;5072957;28;20032;-64
2022/09/21 12:40:21;;;;;;;3.53;0.88;;;;;;;;;;5073032;28;20090;-64
2022/09/21 12:42:54;;;;;;;3.22;1.10;;;;;;;;;;5072270;28;20070;-65
2022/09/21 12:45:28;;;;;;;2.50;1.13;;;;;;;;;;5073115;28;20039;-69
2022/09/21 12:48:05;;;;;;;8.52;1.45;;;;;;;;;;5073105;28;20063;-64
2022/09/21 12:51:10;;;;;;;7.45;1.73;;;;;;;;;;5072824;28;20436;-64
2022/09/21 12:53:40;;;;;;;3.78;1.20;;;;;;;;;;5052989;28;20040;-66
2022/09/21 12:56:15;;;;;;;5.10;1.10;;;;;;;;;;5058054;28;20028;-65
2022/09/21 12:58:56;;;;;;;6.05;1.27;;;;;;;;;;5073084;28;20490;-66
2022/09/21 13:01:28;;;;;;;3.17;1.13;;;;;;;;;;5072878;28;20070;-66
2022/09/21 13:04:15;;;;;;;3.22;1.20;;;;;;;;;;5072659;28;20028;-65
2022/09/21 13:07:06;;;;;;;4.43;1.20;;;;;;;;;;5073007;28;20382;-66
2022/09/21 13:09:33;;;;;;;4.45;1.00;;;;;;;;;;5072213;28;20032;-66
2022/09/21 13:12:07;;;;;;;1.63;0.88;;;;;;;;;;5072508;28;20036;-67
2022/09/21 13:14:36;;;;;;;2.17;1.30;;;;;;;;;;5072918;28;20454;-70
2022/09/21 13:17:04;;;;;;;2.58;1.00;;;;;;;;;;5073113;28;20036;-67
2022/09/21 13:19:34;;;;;;;3.70;1.02;;;;;;;;;;5072959;28;20036;-66
2022/09/21 13:22:24;;;;;;;4.40;1.10;;;;;;;;;;5072217;28;20032;-68
2022/09/21 13:25:12;;;;;;;1.77;1.00;;;;;;;;;;5072807;28;20041;-69
2022/09/21 13:28:00;;;;;;;3.10;1.20;;;;;;;;;;5072816;28;20028;-68
2022/09/21 13:30:31;;;;;;;1.55;1.10;;;;;;;;;;5072631;28;20029;-68
2022/09/21 13:32:58;;;;;;;2.45;1.20;;;;;;;;;;5071358;28;20044;-67
2022/09/21 13:35:49;;;;;;;1.95;1.10;;;;;;;;;;5071880;28;20031;-67
2022/09/21 13:38:39;;;;;;;4.30;1.20;;;;;;;;;;5072652;28;20032;-67
2022/09/21 13:41:16;;;;;;;4.10;1.08;;;;;;;;;;5072213;28;20545;-68
2022/09/21 13:43:55;;;;;;;3.75;1.20;;;;;;;;;;5071308;28;20103;-68
2022/09/21 13:46:36;;;;;;;2.17;1.00;;;;;;;;;;5072060;28;20032;-68
2022/09/21 13:49:11;;;;;;;4.88;1.35;;;;;;;;;;5071245;28;20139;-67
2022/09/21 13:52:02;;;;;;;1.77;1.00;;;;;;;;;;5071197;28;20034;-68
2022/09/21 13:54:37;;;;;;;1.20;1.00;;;;;;;;;;5069826;28;20060;-67
2022/09/21 13:57:16;;;;;;;6.28;1.20;;;;;;;;;;5072888;28;20041;-67
2022/09/21 13:59:44;;;;;;;1.73;1.10;;;;;;;;;;5072645;28;20529;-68
2022/09/21 14:02:53;;;;;;;7.70;1.10;;;;;;;;;;5072464;28;20070;-64
2022/09/21 14:05:31;;;;;;;3.63;1.38;;;;;;;;;;5071225;28;20057;-68
2022/09/21 14:08:05;;;;;;;1.80;1.20;;;;;;;;;;5071747;28;20040;-68
2022/09/21 14:10:35;;;;;;;2.20;1.05;;;;;;;;;;5072765;28;20036;-67
2022/09/21 14:13:04;;;;;;;2.00;1.10;;;;;;;;;;5072787;28;20020;-69
2022/09/21 14:15:35;;;;;;;3.78;1.20;;;;;;;;;;5072823;28;20045;-69
2022/09/21 14:18:16;;;;;;;1.10;0.90;;;;;;;;;;5072341;28;20460;-67
2022/09/21 14:21:16;;;;;;;3.50;1.42;;;;;;;;;;5072383;28;20049;-73
2022/09/21 14:24:07;;;;;;;4.80;1.25;;;;;;;;;;5071101;28;20056;-68
2022/09/21 14:26:40;;;;;;;6.63;1.55;;;;;;;;;;5070971;28;20033;-68
2022/09/21 14:29:18;;;;;;;5.05;1.55;;;;;;;;;;5070974;28;20050;-67
2022/09/21 14:31:44;;;;;;;2.28;1.35;;;;;;;;;;5072312;28;20411;-70
2022/09/21 14:34:16;;;;;;;1.80;1.02;;;;;;;;;;5071039;28;20044;-68
2022/09/21 14:36:45;;;;;;;3.63;1.20;;;;;;;;;;5071577;28;20039;-67
2022/09/21 14:39:24;;;;;;;5.82;1.40;;;;;;;;;;5071365;28;20483;-69
2022/09/21 14:41:54;;;;;;;5.35;1.48;;;;;;;;;;5072492;28;20490;-66
2022/09/21 14:44:24;;;;;;;2.25;1.10;;;;;;;;;;5070380;28;20031;-66
2022/09/21 14:47:11;;;;;;;1.50;1.00;;;;;;;;;;5071899;28;20468;-65
2022/09/21 14:49:43;;;;;;;1.27;1.00;;;;;;;;;;5073979;28;20024;-65
2022/09/21 14:52:47;;;;;;;2.97;1.27;;;;;;;;;;5074782;28;20553;-65
2022/09/21 14:55:24;;;;;;;5.75;1.70;;;;;;;;;;5073993;28;20037;-65
2022/09/21 14:58:18;;;;;;;3.33;1.40;;;;;;;;;;5075039;28;20086;-65
2022/09/21 15:00:45;;;;;;;;;;;;;;;;;;5075721;28;20538;-65
2022/09/21 15:03:37;;;;;;;3.58;1.20;;;;;;;;;;5074818;28;20000;-66
2022/09/21 15:12:49;;;;;;;2.15;1.27;;;;;;;;;;5053642;28;20215;-64
2022/09/21 15:15:33;;;;;;;5.15;1.42;;;;;;;;;;5053523;28;20029;-65
2022/09/21 15:18:00;;;;;;;3.72;1.20;;;;;;;;;;5070149;28;20044;-67
2022/09/21 15:20:28;;;;;;;1.98;1.10;;;;;;;;;;5074750;28;20025;-67
2022/09/21 15:22:56;;;;;;;4.25;1.50;;;;;;;;;;5074415;28;20032;-66
2022/09/21 15:25:25;;;;;;;4.90;1.30;;;;;;;;;;5074705;28;20028;-67
2022/09/21 15:27:52;;;;;;;3.00;1.58;;;;;;;;;;5074651;28;20035;-67
2022/09/21 15:30:21;;;;;;;2.55;1.20;;;;;;;;;;5070043;28;20028;-66
2022/09/21 15:32:54;;;;;;;2.85;1.40;;;;;;;;;;5072838;28;20025;-67
2022/09/21 15:35:23;;;;;;;3.40;1.30;;;;;;;;;;5072261;28;20064;-67